Nebraska Township, Illinois
Current Conditions -  °F | °C
As of 3:35 AM on Thursday 23 Oct 2014 (Local Time) from KPNT Reporting Station
Clear Clear  
Wind Chill: 28°   Ceiling: Unl
Heat Index: 32°   Visibility: 7mi
Dew Point: 32°   Wind: 5mph
Humidity: 97%   Direction: 120°ESE
Pressure: 30.23"   Gusts: NA
Location:  40.8852°N, 88.8734°W
Report Text: KPNT 230835Z AUTO 12004KT 7SM CLR 00/00 A3023 RMK AO2 T00021002
Loading
Personal Weather Stations






























Interactive Weather Map
Tropical Storm Tracking
New forecast layout! Learn more

10-Day Weather Forecast

Advertisements
Track Severe Weather on mobile